Niuzhuang, China
Current Conditions -  °F | °C
As of 11:30 AM on Sunday 23 Nov 2014 (Local Time) from ZYTX Reporting Station
Clear Clear  
Wind Chill: 43°   Ceiling: Unl
Heat Index: 48°   Visibility: 6mi
Dew Point: 14°   Wind: 13mph
Humidity: 25%   Direction: 210°SSW
Pressure: 30.24"   Gusts: NA
Location:  40.97°N, 122.53°E
Report Text: ZYTX 230330Z 21006MPS CAVOK 09/M10 Q1024 NOSIG
Loading
Personal Weather Stations






























Interactive Weather Map New forecast layout! Learn more

10-Day Weather Forecast

Advertisements
Track Severe Weather on mobile